Phoenix, Arizona
Traffic Map
Current Weather Conditions
Phoenix, Arizona
Broken Clouds
Broken Clouds
68°
Feels Like: 68°
Wind Chill: 68° Ceiling: 16000
Heat Index: 68° Visibility: 10mi
Dew Point: 39° Wind: 13mph
Humidity: 35% Direction: 140° (SE)
Pressure: 29.74in Gusts: 0mph
Raw Report DataKPHX 301451Z 14011KT 10SM SCT110 BKN160 BKN220 20/04 A2974 RMK AO2 SLP056 T02000039 50000
Traffic Incident Summary
Active as of:
Severity:
Category:
InformationThere was an issue retrieving the traffic information for this location. Please try a different location or try again shortly.
Advertisements
Track Severe Weather on mobile